Time;durP1;ratioP1;P1;durP2;ratioP2;P2;SDS_P1;SDS_P2;PMS_P1;PMS_P2;Temp;Humidity;BMP_temperature;BMP_pressure;BME280_temperature;BME280_humidity;BME280_pressure;Samples;Min_cycle;Max_cycle;Signal;HPM_P1;HPM_P2
2022/01/29 00:01:09;;;;;;;;;10.00;9.20;;;;;5.99;82.85;101158.13;5020855;28;8844;-64
2022/01/29 00:03:37;;;;;;;;;6.20;4.80;;;;;6.00;83.32;101150.09;5036383;28;8848;-63
2022/01/29 00:06:04;;;;;;;;;7.00;6.60;;;;;6.00;82.91;101143.97;5036146;28;9537;-64
2022/01/29 00:08:32;;;;;;;;;14.00;12.20;;;;;6.01;82.87;101129.81;5035838;28;8879;-63
2022/01/29 00:11:07;;;;;;;;;6.60;6.20;;;;;6.02;82.82;101105.09;5032671;28;8843;-63
2022/01/29 00:13:35;;;;;;;;;10.80;10.00;;;;;6.02;82.64;101103.34;5016273;28;8890;-63
2022/01/29 00:16:03;;;;;;;;;2.60;1.00;;;;;6.02;82.86;101097.19;5016524;28;8846;-64
2022/01/29 00:18:31;;;;;;;;;7.40;6.80;;;;;6.03;82.80;101098.88;5016724;28;8975;-63
2022/01/29 00:20:59;;;;;;;;;8.60;7.80;;;;;6.04;82.64;101104.13;5018475;28;9676;-63
2022/01/29 00:23:26;;;;;;;;;4.00;4.00;;;;;6.06;82.63;101112.84;5036325;28;8983;-68
2022/01/29 00:25:54;;;;;;;;;10.20;9.40;;;;;6.08;82.66;101120.72;5036188;28;8852;-63
2022/01/29 00:28:22;;;;;;;;;7.80;7.40;;;;;6.10;82.51;101110.94;5035805;28;8844;-64
2022/01/29 00:30:49;;;;;;;;;11.00;9.40;;;;;6.13;82.57;101108.13;5034960;28;8868;-63
2022/01/29 00:33:17;;;;;;;;;5.60;4.00;;;;;6.14;82.71;101112.53;5015604;28;9075;-63
2022/01/29 00:35:45;;;;;;;;;9.60;8.60;;;;;6.17;82.31;101109.75;5016083;28;8855;-64
2022/01/29 00:38:13;;;;;;;;;3.40;3.40;;;;;6.18;82.57;101122.91;5014663;28;8965;-63
2022/01/29 00:40:41;;;;;;;;;7.00;7.00;;;;;6.19;82.03;101119.34;5014421;28;8852;-64
2022/01/29 00:43:09;;;;;;;;;1.00;1.00;;;;;6.20;82.53;101113.13;5034246;28;8946;-63
2022/01/29 00:45:37;;;;;;;;;10.00;9.00;;;;;6.22;82.67;101113.06;5035537;28;8874;-63
2022/01/29 00:48:05;;;;;;;;;6.40;6.20;;;;;6.23;81.95;101117.41;5036162;28;8876;-64
2022/01/29 00:50:32;;;;;;;;;6.80;6.00;;;;;6.26;82.25;101114.63;5035978;28;8856;-64
2022/01/29 00:53:00;;;;;;;;;9.00;8.60;;;;;6.27;82.23;101121.63;5034538;28;8876;-63
2022/01/29 00:55:28;;;;;;;;;11.80;11.80;;;;;6.28;82.25;101107.47;5035561;28;8882;-64
2022/01/29 00:57:57;;;;;;;;;10.00;8.60;;;;;6.29;82.38;101101.28;5035576;28;8858;-63
2022/01/29 01:00:24;;;;;;;;;6.80;6.80;;;;;6.30;81.86;101103.00;5035522;28;8868;-63
2022/01/29 01:02:52;;;;;;;;;9.60;8.60;;;;;6.30;81.84;101093.25;5018044;28;8829;-63
2022/01/29 01:05:20;;;;;;;;;8.40;5.60;;;;;6.31;82.54;101075.63;5015556;28;8918;-63
2022/01/29 01:07:48;;;;;;;;;9.20;9.20;;;;;6.30;82.17;101066.81;5015360;28;9028;-63
2022/01/29 01:10:15;;;;;;;;;7.60;6.80;;;;;6.31;82.58;101057.94;5015659;28;8873;-63
2022/01/29 01:12:43;;;;;;;;;13.80;10.80;;;;;6.29;82.39;101061.63;5030043;28;8951;-63
2022/01/29 01:15:11;;;;;;;;;6.20;6.00;;;;;6.29;82.38;101051.03;5035320;28;8926;-63
2022/01/29 01:17:39;;;;;;;;;13.00;11.60;;;;;6.27;82.00;101047.56;5034987;28;8875;-65
2022/01/29 01:20:07;;;;;;;;;8.60;7.40;;;;;6.27;82.31;101066.97;5035323;28;9038;-63
2022/01/29 01:22:34;;;;;;;;;14.40;12.00;;;;;6.27;82.62;101052.88;5021627;28;8964;-64
2022/01/29 01:25:03;;;;;;;;;15.20;11.60;;;;;6.26;82.71;101051.16;5015361;28;8839;-63
2022/01/29 01:27:31;;;;;;;;;10.00;9.00;;;;;6.26;82.20;101046.75;5015203;28;8861;-64
2022/01/29 01:29:58;;;;;;;;;13.80;12.40;;;;;6.25;82.57;101029.16;5015710;28;9005;-63
2022/01/29 01:32:26;;;;;;;;;9.00;7.60;;;;;6.25;82.78;101015.94;5025917;28;8829;-62
2022/01/29 01:34:57;;;;;;;;;5.60;5.20;;;;;6.25;82.58;101018.56;5034659;28;8933;-63
2022/01/29 01:37:34;;;;;;;;;12.40;9.60;;;;;6.25;82.87;101017.72;5034526;28;8959;-64
2022/01/29 01:40:02;;;;;;;;;11.20;6.20;;;;;6.25;82.54;101015.94;5029678;28;8901;-63
2022/01/29 01:42:30;;;;;;;;;14.60;14.20;;;;;6.26;82.79;101008.84;5015192;28;8961;-63
2022/01/29 01:45:03;;;;;;;;;8.80;8.60;;;;;6.26;82.84;101011.50;5015030;28;8940;-64
2022/01/29 01:47:31;;;;;;;;;11.80;10.60;;;;;6.27;82.81;101007.91;5015028;28;8834;-63
2022/01/29 01:49:58;;;;;;;;;12.40;11.80;;;;;6.27;82.63;101006.13;5018029;28;8832;-63
2022/01/29 01:52:26;;;;;;;;;17.80;10.40;;;;;6.28;82.68;100996.41;5034522;28;8836;-63
2022/01/29 01:54:54;;;;;;;;;0.00;0.00;;;;;6.29;82.53;100998.16;5034625;28;8840;-64
2022/01/29 01:57:22;;;;;;;;;20.00;17.00;;;;;6.29;83.19;100988.41;5034655;28;8840;-63
2022/01/29 01:59:50;;;;;;;;;9.20;9.20;;;;;6.29;83.20;100977.81;5031900;28;8932;-63
2022/01/29 02:02:18;;;;;;;;;11.80;9.40;;;;;6.29;82.67;100982.28;5014759;28;8949;-63
2022/01/29 02:04:46;;;;;;;;;14.60;14.00;;;;;6.27;82.88;100962.94;5014624;28;8860;-64
2022/01/29 02:07:14;;;;;;;;;14.80;13.20;;;;;6.25;82.63;100963.03;5014840;28;8834;-63
2022/01/29 02:09:41;;;;;;;;;8.40;6.20;;;;;6.25;83.01;100970.09;5016574;28;8843;-64
2022/01/29 02:12:10;;;;;;;;;8.60;5.80;;;;;6.26;83.07;100961.25;5035058;28;8986;-64
2022/01/29 02:14:39;;;;;;;;;9.20;9.00;;;;;6.26;83.05;100982.41;5034378;28;8891;-63
2022/01/29 02:17:07;;;;;;;;;13.80;12.20;;;;;6.27;83.26;100973.53;5034348;28;8829;-65
2022/01/29 02:19:35;;;;;;;;;12.40;11.20;;;;;6.27;83.11;100962.94;5033325;28;8851;-64
2022/01/29 02:22:03;;;;;;;;;7.80;6.20;;;;;6.28;83.10;100954.09;5014167;28;8854;-64
2022/01/29 02:24:33;;;;;;;;;12.60;12.60;;;;;6.30;83.26;100949.59;5014087;28;8858;-65
2022/01/29 02:27:01;;;;;;;;;7.00;7.00;;;;;6.31;83.25;100940.75;5014763;28;8960;-64
2022/01/29 02:29:29;;;;;;;;;14.20;10.80;;;;;6.32;82.98;100956.53;5014570;28;8892;-63
2022/01/29 02:31:56;;;;;;;;;18.20;12.40;;;;;6.34;83.05;100943.22;5033491;28;8947;-64
2022/01/29 02:34:24;;;;;;;;;12.00;11.20;;;;;6.34;83.26;100943.22;5034302;28;8886;-64
2022/01/29 02:36:52;;;;;;;;;4.40;4.40;;;;;6.37;83.14;100943.09;5034437;28;8866;-63
2022/01/29 02:39:21;;;;;;;;;12.40;12.40;;;;;6.37;82.89;100927.25;5033487;28;9118;-63
2022/01/29 02:41:49;;;;;;;;;7.80;5.60;;;;;6.37;83.66;100924.59;5032019;28;8825;-65
2022/01/29 02:44:19;;;;;;;;;7.80;7.40;;;;;6.38;83.15;100915.72;5037324;28;8971;-63
2022/01/29 02:46:52;;;;;;;;;15.00;12.60;;;;;6.36;83.44;100907.84;5036518;28;8841;-63
2022/01/29 02:49:19;;;;;;;;;11.80;11.20;;;;;6.36;82.90;100899.91;5038215;28;9506;-63
2022/01/29 02:51:47;;;;;;;;;10.80;10.80;;;;;6.37;83.07;100891.03;5020020;28;8827;-64
2022/01/29 02:54:15;;;;;;;;;12.20;10.40;;;;;6.37;83.01;100893.69;5018231;28;9537;-64
2022/01/29 02:56:43;;;;;;;;;15.20;13.00;;;;;6.37;82.84;100887.56;5018143;28;8977;-64
2022/01/29 02:59:10;;;;;;;;;18.00;13.80;;;;;6.35;83.42;100894.69;5017695;28;9543;-64
2022/01/29 03:01:38;;;;;;;;;8.60;8.20;;;;;6.34;83.30;100883.28;5033977;28;9477;-63
2022/01/29 03:04:06;;;;;;;;;8.60;6.00;;;;;6.32;83.56;100879.84;5037823;28;8844;-63
2022/01/29 03:06:34;;;;;;;;;11.20;10.00;;;;;6.31;83.64;100891.31;5037492;28;8854;-63
2022/01/29 03:09:01;;;;;;;;;13.80;11.00;;;;;6.32;83.74;100889.56;5038114;28;9603;-64
2022/01/29 03:11:29;;;;;;;;;8.20;7.80;;;;;6.33;83.54;100885.97;5022310;28;8827;-63
2022/01/29 03:13:58;;;;;;;;;10.60;10.60;;;;;6.34;83.81;100877.09;5017468;28;8838;-63
2022/01/29 03:16:26;;;;;;;;;13.20;11.60;;;;;6.35;83.27;100878.81;5017563;28;9563;-67
2022/01/29 03:18:54;;;;;;;;;13.00;11.40;;;;;6.34;84.13;100885.03;5017149;28;8851;-68
2022/01/29 03:21:22;;;;;;;;;12.20;11.20;;;;;6.30;83.92;100878.19;5029416;28;8843;-65
2022/01/29 03:23:49;;;;;;;;;2.20;2.20;;;;;6.27;83.83;100875.69;5036278;28;8852;-63
2022/01/29 03:26:17;;;;;;;;;8.60;7.40;;;;;6.24;84.34;100874.06;5036853;28;8926;-65
2022/01/29 03:28:45;;;;;;;;;10.00;9.20;;;;;6.25;84.15;100869.63;5037154;28;8866;-64
2022/01/29 03:31:12;;;;;;;;;8.40;8.20;;;;;6.24;84.32;100858.19;5024764;28;9048;-64
2022/01/29 03:33:40;;;;;;;;;7.00;7.00;;;;;6.25;84.13;100866.97;5017370;28;8834;-66
2022/01/29 03:36:08;;;;;;;;;13.60;12.40;;;;;6.26;84.48;100861.63;5017044;28;8948;-64
2022/01/29 03:38:39;;;;;;;;;14.20;12.20;;;;;6.27;84.45;100859.81;5016963;28;8983;-64
2022/01/29 03:41:07;;;;;;;;;10.40;10.40;;;;;6.25;83.92;100859.91;5028159;28;8829;-64
2022/01/29 03:43:42;;;;;;;;;7.60;7.00;;;;;6.22;84.38;100853.91;5037194;28;8959;-66
2022/01/29 03:46:10;;;;;;;;;7.80;7.80;;;;;6.20;84.12;100846.03;5036813;28;8832;-63
2022/01/29 03:48:38;;;;;;;;;15.20;13.00;;;;;6.19;84.21;100852.25;5036832;28;8949;-64
2022/01/29 03:51:05;;;;;;;;;10.80;9.60;;;;;6.19;84.85;100846.09;5025864;28;8839;-64
2022/01/29 03:53:33;;;;;;;;;10.80;9.40;;;;;6.21;84.71;100834.53;5017308;28;8961;-63
2022/01/29 03:56:01;;;;;;;;;3.00;1.40;;;;;6.22;85.08;100823.00;5016451;28;8851;-64
2022/01/29 03:58:29;;;;;;;;;9.40;7.80;;;;;6.25;84.49;100817.59;5016410;28;8989;-65
2022/01/29 04:00:56;;;;;;;;;6.60;4.80;;;;;6.28;84.73;100817.44;5025767;28;8930;-64
2022/01/29 04:03:24;;;;;;;;;7.00;5.20;;;;;6.33;84.37;100806.63;5036995;28;8853;-64
2022/01/29 04:05:52;;;;;;;;;9.80;8.60;;;;;6.37;84.70;100813.50;5036232;28;8849;-65
2022/01/29 04:08:20;;;;;;;;;11.20;9.00;;;;;6.41;84.60;100817.69;5036867;28;8848;-63
2022/01/29 04:10:48;;;;;;;;;6.20;6.20;;;;;6.44;84.63;100818.41;5028141;28;8854;-63
2022/01/29 04:13:20;;;;;;;;;9.60;9.40;;;;;6.47;84.82;100809.47;5016772;28;9615;-64
2022/01/29 04:15:48;;;;;;;;;10.80;9.60;;;;;6.50;84.63;100811.94;5016491;28;8854;-64
2022/01/29 04:18:16;;;;;;;;;4.40;3.80;;;;;6.50;84.64;100802.25;5016716;28;8846;-63
2022/01/29 04:20:44;;;;;;;;;7.00;6.20;;;;;6.48;84.42;100796.19;5023489;28;8833;-65
2022/01/29 04:23:12;;;;;;;;;6.00;4.80;;;;;6.47;84.47;100798.88;5036419;28;8945;-63
2022/01/29 04:25:40;;;;;;;;;7.80;7.60;;;;;6.42;84.70;100796.47;5036116;28;8825;-63
2022/01/29 04:28:10;;;;;;;;;10.40;8.40;;;;;6.37;84.69;100790.53;5036338;28;8847;-63
2022/01/29 04:30:44;;;;;;;;;9.20;6.80;;;;;6.34;84.66;100797.75;5029661;28;8928;-64
2022/01/29 04:33:28;;;;;;;;;7.00;7.00;;;;;6.31;85.32;100793.47;5016461;28;8850;-64
2022/01/29 04:35:55;;;;;;;;;6.00;6.00;;;;;6.27;85.36;100796.34;5016102;28;8861;-63
2022/01/29 04:38:23;;;;;;;;;4.20;3.60;;;;;6.25;85.42;100790.28;5016376;28;8957;-63
2022/01/29 04:40:51;;;;;;;;;5.60;4.00;;;;;6.23;85.39;100786.88;5022797;28;8852;-64
2022/01/29 04:43:19;;;;;;;;;7.00;5.20;;;;;6.22;85.40;100791.28;5036002;28;8962;-63
2022/01/29 04:45:46;;;;;;;;;3.60;3.60;;;;;6.24;85.48;100793.88;5036267;28;8847;-64
2022/01/29 04:48:14;;;;;;;;;8.00;6.00;;;;;6.24;85.46;100788.56;5035449;28;8931;-64
2022/01/29 04:50:42;;;;;;;;;7.00;4.00;;;;;6.25;85.88;100791.16;5029089;28;8834;-64
2022/01/29 04:53:10;;;;;;;;;6.60;6.00;;;;;6.26;85.71;100792.00;5016130;28;8993;-64
2022/01/29 04:55:38;;;;;;;;;4.20;3.60;;;;;6.27;85.55;100788.41;5014988;28;8858;-64
2022/01/29 04:58:06;;;;;;;;;7.00;7.00;;;;;6.27;85.88;100794.56;5015632;28;8948;-64
2022/01/29 05:00:35;;;;;;;;;4.40;4.40;;;;;6.28;85.50;100782.19;5020555;28;8861;-64
2022/01/29 05:03:03;;;;;;;;;2.20;0.60;;;;;6.29;85.57;100782.13;5035314;28;8836;-64
2022/01/29 05:05:31;;;;;;;;;4.00;4.00;;;;;6.28;85.92;100785.69;5034918;28;8851;-63
2022/01/29 05:07:58;;;;;;;;;4.00;3.60;;;;;6.29;86.16;100770.72;5033054;28;8886;-63
2022/01/29 05:10:26;;;;;;;;;2.20;2.20;;;;;6.28;85.74;100774.25;5030639;28;8853;-64
2022/01/29 05:12:58;;;;;;;;;4.80;3.20;;;;;6.28;86.29;100761.03;5015941;28;8965;-64
2022/01/29 05:15:34;;;;;;;;;5.20;5.20;;;;;6.28;86.41;100769.84;5014863;28;8835;-64
2022/01/29 05:29:02;;;;;;;;;1.00;0.20;;;;;6.26;86.78;100757.63;5034571;28;8860;-64
2022/01/29 05:31:30;;;;;;;;;2.20;2.20;;;;;6.26;86.56;100760.25;5022496;28;8961;-63
2022/01/29 05:33:58;;;;;;;;;3.20;3.00;;;;;6.27;86.72;100756.69;5015604;28;8938;-64
2022/01/29 05:36:26;;;;;;;;;4.00;3.40;;;;;6.27;86.76;100752.25;5015210;28;8969;-64
2022/01/29 05:38:57;;;;;;;;;3.40;3.40;;;;;6.29;86.90;100755.69;5015465;28;8846;-63
2022/01/29 05:41:25;;;;;;;;;2.20;2.20;;;;;6.31;86.38;100739.75;5026073;28;8829;-63
2022/01/29 05:43:52;;;;;;;;;1.00;1.00;;;;;6.31;86.70;100743.22;5034631;28;8886;-64
2022/01/29 05:46:21;;;;;;;;;3.40;3.00;;;;;6.33;86.81;100740.50;5034861;28;8832;-65
2022/01/29 05:48:49;;;;;;;;;0.60;0.60;;;;;6.36;86.66;100735.09;5034972;28;8829;-64
2022/01/29 05:51:16;;;;;;;;;3.00;1.00;;;;;6.37;86.85;100734.16;5019906;28;8823;-63
2022/01/29 05:53:44;;;;;;;;;1.00;1.00;;;;;6.39;87.21;100738.44;5014824;28;8839;-64
2022/01/29 05:56:12;;;;;;;;;4.00;4.00;;;;;6.40;86.99;100731.34;5014750;28;8897;-63
2022/01/29 05:58:40;;;;;;;;;2.20;2.20;;;;;6.41;86.79;100728.63;5015147;28;8869;-64
2022/01/29 06:01:07;;;;;;;;;3.60;3.40;;;;;6.44;87.13;100732.91;5026803;28;8968;-64
2022/01/29 06:03:35;;;;;;;;;1.00;1.00;;;;;6.45;87.09;100734.63;5033604;28;8871;-63
2022/01/29 06:06:03;;;;;;;;;3.60;2.60;;;;;6.47;87.19;100716.88;5034486;28;8969;-63
2022/01/29 06:08:31;;;;;;;;;4.40;2.80;;;;;6.50;86.93;100711.41;5033436;28;8975;-63
2022/01/29 06:10:59;;;;;;;;;3.00;3.00;;;;;6.52;86.92;100720.16;5022337;28;8819;-64
2022/01/29 06:13:26;;;;;;;;;2.20;2.20;;;;;6.52;87.14;100709.56;5013844;28;8843;-63
2022/01/29 06:15:54;;;;;;;;;1.40;1.20;;;;;6.53;86.99;100709.47;5014737;28;8858;-64
2022/01/29 06:18:23;;;;;;;;;3.60;3.60;;;;;6.57;87.18;100715.47;5015764;28;8973;-63
2022/01/29 06:20:50;;;;;;;;;3.80;3.00;;;;;6.60;87.35;100712.69;5028195;28;8825;-63
2022/01/29 06:23:21;;;;;;;;;3.20;3.20;;;;;6.63;86.88;100723.09;5038265;28;8978;-64
2022/01/29 06:25:49;;;;;;;;;3.00;3.00;;;;;6.66;87.24;100717.66;5038469;28;8828;-64
2022/01/29 06:28:17;;;;;;;;;3.00;3.00;;;;;6.70;87.20;100703.34;5038131;28;8854;-63
2022/01/29 06:30:44;;;;;;;;;7.00;5.80;;;;;6.74;86.70;100716.31;5029520;28;8888;-64
2022/01/29 06:33:12;;;;;;;;;4.40;2.60;;;;;6.78;86.96;100712.59;5018768;28;8867;-64
2022/01/29 06:35:40;;;;;;;;;4.00;3.20;;;;;6.83;87.05;100710.53;5018505;28;8842;-65
2022/01/29 06:38:08;;;;;;;;;3.00;2.60;;;;;6.87;86.82;100698.88;5018719;28;9628;-64
2022/01/29 06:40:35;;;;;;;;;4.00;4.00;;;;;6.91;86.53;100696.94;5025351;28;9510;-64
2022/01/29 06:43:04;;;;;;;;;7.80;6.00;;;;;6.92;86.69;100699.50;5038572;28;9002;-64
2022/01/29 06:45:31;;;;;;;;;4.80;4.00;;;;;6.95;86.87;100691.38;5037571;28;8836;-63
2022/01/29 06:47:59;;;;;;;;;7.40;6.80;;;;;6.97;86.48;100694.81;5037440;28;8975;-64
2022/01/29 06:50:27;;;;;;;;;6.40;6.20;;;;;7.00;87.16;100688.50;5031799;28;8965;-65
2022/01/29 06:52:55;;;;;;;;;1.80;1.80;;;;;7.01;86.70;100690.19;5017270;28;8996;-65
2022/01/29 06:55:22;;;;;;;;;3.20;3.00;;;;;7.01;86.57;100676.97;5017233;28;8831;-63
2022/01/29 06:57:50;;;;;;;;;4.25;4.00;;;;;7.01;86.75;100683.13;5016765;28;9602;-64
2022/01/29 07:00:38;;;;;;;;;8.20;7.00;;;;;7.04;87.29;100682.94;5016611;28;8851;-63
2022/01/29 07:03:06;;;;;;;;;10.00;8.80;;;;;7.05;86.90;100689.13;5024983;28;8843;-64
2022/01/29 07:05:34;;;;;;;;;6.80;5.60;;;;;7.05;86.53;100679.34;5033701;28;8863;-63
2022/01/29 07:08:01;;;;;;;;;6.20;6.00;;;;;7.07;86.58;100682.81;5033968;28;8866;-63
2022/01/29 07:10:29;;;;;;;;;7.00;6.20;;;;;7.09;87.09;100675.63;5034051;28;8833;-64
2022/01/29 07:12:57;;;;;;;;;7.40;7.00;;;;;7.11;86.54;100662.28;5034402;28;8967;-64
2022/01/29 07:15:25;;;;;;;;;3.25;3.25;;;;;7.13;86.86;100665.72;5035566;28;9931;-64
2022/01/29 07:17:52;;;;;;;;;6.20;6.00;;;;;7.13;86.87;100674.50;5020179;28;8957;-65
2022/01/29 07:20:20;;;;;;;;;5.20;4.00;;;;;7.16;86.84;100670.84;5016465;28;8838;-63
2022/01/29 07:22:48;;;;;;;;;5.50;4.00;;;;;7.18;86.56;100675.13;5016443;28;8834;-63
2022/01/29 07:25:16;;;;;;;;;8.20;6.80;;;;;7.20;86.84;100667.09;5016009;28;8827;-63
2022/01/29 07:27:43;;;;;;;;;9.00;6.60;;;;;7.21;87.09;100679.41;5015796;28;8866;-63
2022/01/29 07:30:11;;;;;;;;;4.50;1.25;;;;;7.22;87.06;100666.09;5015341;28;8874;-66
2022/01/29 07:32:39;;;;;;;;;4.50;4.00;;;;;7.24;86.72;100672.16;5020909;28;8816;-63
2022/01/29 07:35:06;;;;;;;;;4.00;4.00;;;;;7.25;86.35;100668.56;5036579;28;9517;-63
2022/01/29 07:37:34;;;;;;;;;7.80;4.00;;;;;7.28;86.56;100672.84;5036423;28;8832;-62
2022/01/29 07:40:02;;;;;;;;;10.20;8.80;;;;;7.31;86.44;100667.34;5036913;28;8983;-63
2022/01/29 07:42:30;;;;;;;;;9.20;8.60;;;;;7.32;86.68;100666.41;5036649;28;8995;-63
2022/01/29 07:44:57;;;;;;;;;7.60;6.20;;;;;7.33;86.48;100653.09;5036961;28;8864;-63
2022/01/29 07:47:25;;;;;;;;;10.80;9.80;;;;;7.36;86.78;100675.91;5036518;28;8967;-63
2022/01/29 07:49:53;;;;;;;;;9.60;8.60;;;;;7.37;86.82;100653.78;5036419;28;8995;-63
2022/01/29 07:52:21;;;;;;;;;13.80;12.00;;;;;7.39;87.00;100663.38;5019523;28;8843;-63
2022/01/29 07:54:48;;;;;;;;;4.00;3.00;;;;;7.42;86.65;100665.00;5017030;28;8851;-63
2022/01/29 07:57:16;;;;;;;;;10.40;7.40;;;;;7.43;86.69;100666.69;5016393;28;8990;-63
2022/01/29 07:59:44;;;;;;;;;6.20;5.60;;;;;7.45;87.08;100656.88;5016160;28;8867;-63
2022/01/29 08:02:12;;;;;;;;;12.20;9.00;;;;;7.45;86.40;100651.56;5016338;28;8861;-62
2022/01/29 08:04:39;;;;;;;;;9.20;7.80;;;;;7.47;86.83;100649.69;5016378;28;8851;-63
2022/01/29 08:07:08;;;;;;;;;13.80;8.60;;;;;7.46;87.39;100648.84;5015469;28;9620;-63
2022/01/29 08:09:35;;;;;;;;;6.50;6.25;;;;;7.49;87.00;100647.81;5016084;28;8850;-63
2022/01/29 08:12:03;;;;;;;;;8.20;7.00;;;;;7.51;87.42;100641.47;5029866;28;8853;-63
2022/01/29 08:14:31;;;;;;;;;12.40;11.20;;;;;7.52;86.67;100643.19;5036321;28;9523;-62
2022/01/29 08:16:59;;;;;;;;;5.20;4.80;;;;;7.54;86.66;100641.31;5035925;28;8978;-63
2022/01/29 08:19:26;;;;;;;;;17.00;15.80;;;;;7.56;86.90;100651.81;5036063;28;8910;-63
2022/01/29 08:21:54;;;;;;;;;13.20;12.00;;;;;7.56;87.35;100646.50;5036153;28;8975;-63
2022/01/29 08:24:22;;;;;;;;;11.80;9.80;;;;;7.54;87.60;100627.19;5036106;28;8862;-62
2022/01/29 08:26:50;;;;;;;;;9.60;8.80;;;;;7.53;87.38;100625.50;5034945;28;9521;-63
2022/01/29 08:29:17;;;;;;;;;7.50;6.50;;;;;7.53;87.74;100633.44;5035205;28;8942;-62
2022/01/29 08:31:45;;;;;;;;;7.00;7.00;;;;;7.54;87.57;100625.41;5034846;28;8856;-63
2022/01/29 08:34:13;;;;;;;;;14.20;11.60;;;;;7.57;87.67;100629.69;5022776;28;8859;-64
2022/01/29 08:36:41;;;;;;;;;17.00;13.50;;;;;7.60;87.45;100624.22;5015728;28;9000;-63
2022/01/29 08:39:09;;;;;;;;;8.00;6.50;;;;;7.62;87.40;100638.22;5015095;28;8856;-64
2022/01/29 08:41:36;;;;;;;;;9.00;8.60;;;;;7.66;87.30;100621.22;5015296;28;8854;-63
2022/01/29 08:44:04;;;;;;;;;6.50;5.50;;;;;7.67;87.48;100620.28;5015727;28;8857;-63
2022/01/29 08:46:33;;;;;;;;;9.60;7.00;;;;;7.70;87.89;100628.91;5015484;28;8831;-63
2022/01/29 08:49:01;;;;;;;;;9.40;7.80;;;;;7.72;87.73;100631.47;5015583;28;8909;-66
2022/01/29 08:51:29;;;;;;;;;10.40;9.60;;;;;7.70;87.15;100629.72;5015274;28;8956;-63
2022/01/29 08:53:56;;;;;;;;;9.20;9.00;;;;;7.70;87.58;100629.72;5015001;28;8846;-63
2022/01/29 08:56:24;;;;;;;;;14.20;12.40;;;;;7.70;87.51;100623.59;5015306;28;8830;-63
2022/01/29 08:58:52;;;;;;;;;8.00;7.50;;;;;7.69;87.57;100628.03;5028333;28;8858;-63
2022/01/29 09:01:20;;;;;;;;;13.80;12.00;;;;;7.68;87.59;100637.88;5034895;28;8863;-62
2022/01/29 09:03:47;;;;;;;;;7.00;6.20;;;;;7.67;87.69;100630.88;5034023;28;8922;-63
2022/01/29 09:06:15;;;;;;;;;9.75;9.75;;;;;7.66;87.98;100618.56;5034743;28;8872;-67
2022/01/29 09:08:46;;;;;;;;;3.80;3.00;;;;;7.66;87.84;100607.97;5034175;28;8967;-63
2022/01/29 09:11:14;;;;;;;;;5.20;4.80;;;;;7.64;87.67;100600.09;5034169;28;8938;-63
2022/01/29 09:13:43;;;;;;;;;13.40;10.80;;;;;7.66;87.83;100600.84;5035222;28;8832;-63
2022/01/29 09:16:10;;;;;;;;;9.00;8.25;;;;;7.68;88.05;100583.91;5034583;28;8966;-62
2022/01/29 09:18:38;;;;;;;;;11.00;9.00;;;;;7.72;88.49;100588.13;5034637;28;8844;-62
2022/01/29 09:21:06;;;;;;;;;8.00;7.00;;;;;7.75;88.23;100579.13;5034639;28;8870;-62
2022/01/29 09:23:34;;;;;;;;;10.25;8.75;;;;;7.78;88.03;100578.94;5030767;28;8857;-62
2022/01/29 09:26:02;;;;;;;;;11.50;9.75;;;;;7.79;87.89;100570.03;5014635;28;8965;-63
2022/01/29 09:28:30;;;;;;;;;11.00;9.75;;;;;7.78;88.23;100561.25;5014710;28;8849;-68
2022/01/29 09:30:57;;;;;;;;;11.00;10.00;;;;;7.79;88.17;100562.97;5014877;28;8867;-63
2022/01/29 09:33:25;;;;;;;;;9.50;9.00;;;;;7.79;88.33;100568.25;5014626;28;9834;-63
2022/01/29 09:35:53;;;;;;;;;10.75;9.50;;;;;7.80;88.06;100559.38;5014796;28;8846;-63
2022/01/29 09:38:21;;;;;;;;;10.00;9.50;;;;;7.80;88.79;100572.63;5014604;28;8858;-64
2022/01/29 09:40:49;;;;;;;;;8.75;7.50;;;;;7.82;88.10;100562.78;5014625;28;8830;-64
2022/01/29 09:43:16;;;;;;;;;12.00;10.00;;;;;7.84;88.27;100560.03;5014123;28;8866;-63
2022/01/29 09:45:44;;;;;;;;;5.00;4.00;;;;;7.86;88.78;100552.84;5014559;28;9750;-63
2022/01/29 09:48:12;;;;;;;;;3.75;3.25;;;;;7.88;88.28;100556.25;5014633;28;8835;-62
2022/01/29 09:50:40;;;;;;;;;13.75;12.50;;;;;7.89;88.26;100552.66;5014693;28;8972;-64
2022/01/29 09:53:08;;;;;;;;;9.25;8.00;;;;;7.92;88.18;100558.63;5028536;28;8824;-63
2022/01/29 09:55:36;;;;;;;;;4.50;4.50;;;;;7.94;88.54;100561.19;5034544;28;8946;-63
2022/01/29 09:58:03;;;;;;;;;3.50;3.25;;;;;7.94;88.31;100551.47;5033199;28;8860;-64
2022/01/29 10:00:31;;;;;;;;;8.50;7.00;;;;;7.96;88.28;100549.56;5034742;28;8970;-63
2022/01/29 10:02:59;;;;;;;;;7.50;7.00;;;;;7.98;88.03;100542.34;5034181;28;8832;-63
2022/01/29 10:05:28;;;;;;;;;6.25;5.50;;;;;8.01;88.30;100552.81;5034150;28;8915;-63
2022/01/29 10:07:56;;;;;;;;;6.50;5.25;;;;;8.03;87.95;100550.91;5033644;28;8855;-62
2022/01/29 10:10:23;;;;;;;;;7.00;6.25;;;;;8.04;88.45;100542.00;5034312;28;8856;-63
2022/01/29 10:12:51;;;;;;;;;6.75;6.00;;;;;8.04;88.31;100544.66;5033789;28;8844;-63
2022/01/29 10:15:19;;;;;;;;;7.75;6.50;;;;;8.06;88.46;100544.56;5033894;28;8848;-63
2022/01/29 10:17:47;;;;;;;;;7.00;6.50;;;;;8.07;88.29;100547.09;5033975;28;8836;-63
2022/01/29 10:20:14;;;;;;;;;6.00;6.00;;;;;8.07;88.42;100539.16;5033302;28;8840;-63
2022/01/29 10:22:42;;;;;;;;;6.00;5.00;;;;;8.09;88.27;100539.06;5022265;28;8819;-63
2022/01/29 10:25:10;;;;;;;;;6.00;4.00;;;;;8.11;88.67;100548.66;5014261;28;8846;-63
2022/01/29 10:27:38;;;;;;;;;3.75;3.75;;;;;8.13;88.04;100544.09;5014406;28;8880;-62
2022/01/29 10:30:10;;;;;;;;;4.25;4.25;;;;;8.16;88.56;100525.38;5014117;28;8877;-62
2022/01/29 10:32:38;;;;;;;;;6.50;5.50;;;;;8.20;88.08;100526.06;5014130;28;8940;-64
2022/01/29 10:35:11;;;;;;;;;8.25;8.25;;;;;8.22;88.74;100524.16;5014357;28;8846;-63
2022/01/29 10:37:39;;;;;;;;;9.75;7.50;;;;;8.23;88.02;100516.13;5013164;28;8843;-62
2022/01/29 10:40:07;;;;;;;;;14.50;10.50;;;;;8.25;88.31;100513.34;5013939;28;8834;-62
2022/01/29 10:42:35;;;;;;;;;6.00;5.00;;;;;8.28;88.81;100494.63;5014301;28;8973;-62
2022/01/29 10:45:03;;;;;;;;;9.75;9.50;;;;;8.31;88.52;100503.25;5013555;28;8831;-64
2022/01/29 10:47:30;;;;;;;;;8.50;7.50;;;;;8.36;88.47;100490.53;5014138;28;8968;-62
2022/01/29 10:49:59;;;;;;;;;8.50;6.25;;;;;8.41;88.70;100492.88;5013875;28;8838;-63
2022/01/29 10:52:26;;;;;;;;;10.25;7.00;;;;;8.46;87.92;100490.81;5022434;28;8821;-62
2022/01/29 10:54:55;;;;;;;;;10.00;8.50;;;;;8.47;88.33;100477.47;5033383;28;8995;-62
2022/01/29 10:57:22;;;;;;;;;5.75;4.00;;;;;8.49;88.40;100469.38;5032076;28;8871;-63
2022/01/29 10:59:50;;;;;;;;;4.50;4.50;;;;;8.48;88.24;100472.97;5033669;28;9012;-63
2022/01/29 11:02:18;;;;;;;;;9.25;9.25;;;;;8.51;88.14;100467.50;5033825;28;8840;-63
2022/01/29 11:04:47;;;;;;;;;8.50;8.50;;;;;8.58;88.35;100463.50;5033888;28;8878;-62
2022/01/29 11:07:17;;;;;;;;;9.50;9.50;;;;;8.67;87.91;100458.44;4997990;28;8872;-63
2022/01/29 11:09:45;;;;;;;;;9.50;8.50;;;;;8.74;87.73;100443.00;4997770;28;8980;-62
2022/01/29 11:12:12;;;;;;;;;9.25;8.75;;;;;8.76;87.79;100449.06;4997330;28;8856;-63
2022/01/29 11:14:42;;;;;;;;;12.75;11.50;;;;;8.74;87.61;100443.84;4997672;28;9601;-63
2022/01/29 11:17:11;;;;;;;;;8.00;7.00;;;;;8.71;87.26;100445.84;4996821;28;8871;-63
2022/01/29 11:19:39;;;;;;;;;9.25;9.00;;;;;8.67;88.15;100433.72;4997503;28;8857;-62
2022/01/29 11:22:07;;;;;;;;;6.50;6.50;;;;;8.64;88.15;100444.53;4990693;28;8848;-62
2022/01/29 11:24:34;;;;;;;;;9.75;9.00;;;;;8.61;87.79;100432.31;4977403;28;8824;-62
2022/01/29 11:27:03;;;;;;;;;11.50;8.50;;;;;8.60;87.78;100430.59;4977471;28;8886;-62
2022/01/29 11:29:31;;;;;;;;;10.25;10.25;;;;;8.59;88.00;100410.31;4978108;28;8875;-63
2022/01/29 11:31:58;;;;;;;;;7.00;5.00;;;;;8.59;88.40;100402.34;4977845;28;8847;-63
2022/01/29 11:34:27;;;;;;;;;6.50;6.50;;;;;8.60;88.16;100393.44;4977207;28;8886;-66
2022/01/29 11:36:54;;;;;;;;;9.50;8.00;;;;;8.59;87.96;100410.31;4970917;28;8890;-66
2022/01/29 11:39:22;;;;;;;;;9.75;9.75;;;;;8.58;88.60;100389.19;4976946;28;8876;-63
2022/01/29 11:41:50;;;;;;;;;9.50;9.50;;;;;8.58;88.22;100395.34;4976365;28;8857;-64
2022/01/29 11:44:18;;;;;;;;;5.50;4.00;;;;;8.58;88.44;100392.69;4977669;28;8863;-65
2022/01/29 11:46:45;;;;;;;;;6.75;4.50;;;;;8.60;88.55;100384.63;4978643;28;9910;-64
2022/01/29 11:49:13;;;;;;;;;8.50;7.00;;;;;8.61;88.45;100391.63;4977876;28;8890;-65
2022/01/29 11:51:41;;;;;;;;;8.00;7.00;;;;;8.62;88.88;100367.66;4982622;28;8845;-64